Аэропорт: Внуково. Москва

ICAO: UUWW

METAR:
2021-01-24 19:00:00
UUWW 241900Z 15003MPS 2000 BR OVC002 02/02 Q1010 R06/290045 NOSIG RMK QBB060
METAR:
2021-01-24 16:59:00
TAF UUWW 241659Z 2418/2518 15005G11MPS 0800 FG OVC002 TX01/2418Z TNM00/2506Z TEMPO 2418/2503 0300 FG OVC001 BECMG 2503/2505 2000 BR OVC003 TEMPO 2505/2509 0900 FG OVC001 BECMG 2509/2510 3100 BR TEMPO 2510/2518 1000 -RA BR OVC002